Time;durP1;ratioP1;P1;durP2;ratioP2;P2;SDS_P1;SDS_P2;PMS_P1;PMS_P2;Temp;Humidity;BMP_temperature;BMP_pressure;BME280_temperature;BME280_humidity;BME280_pressure;Samples;Min_cycle;Max_cycle;Signal;HPM_P1;HPM_P2
2023/12/10 09:41:12;;;;;;;;;5.00;1.00;;;;;19.91;46.23;100997.56;5331090;23;46977;-73
2023/12/10 09:43:38;;;;;;;;;4.67;1.67;;;;;19.76;45.90;100973.63;4936660;28;45414;-72
2023/12/10 09:46:03;;;;;;;;;4.33;2.00;;;;;19.79;45.31;100977.75;4943298;28;45448;-72
2023/12/10 09:48:30;;;;;;;;;1.67;1.67;;;;;19.75;44.85;100968.50;4938508;28;46248;-73
2023/12/10 09:50:55;;;;;;;;;4.33;1.00;;;;;19.71;44.63;100975.91;4941000;28;45511;-73
2023/12/10 09:53:21;;;;;;;;;4.33;4.33;;;;;19.67;44.68;100980.69;4937800;28;45450;-74
2023/12/10 09:55:47;;;;;;;;;2.67;2.33;;;;;19.63;44.48;100968.81;4937859;28;45510;-73
2023/12/10 09:58:13;;;;;;;;;5.67;3.33;;;;;19.53;44.47;100945.19;4930866;28;47002;-72
2023/12/10 10:00:38;;;;;;;;;6.00;3.00;;;;;19.54;44.79;100927.56;4927895;28;45373;-71
2023/12/10 10:03:04;;;;;;;;;3.00;2.33;;;;;19.62;44.70;100944.22;4921011;28;45463;-71
2023/12/10 10:05:29;;;;;;;;;5.67;3.33;;;;;19.66;44.95;100942.09;4918474;28;45289;-71
2023/12/10 10:07:54;;;;;;;;;2.67;2.00;;;;;19.68;45.08;100945.38;4923055;28;46094;-70
2023/12/10 10:10:22;;;;;;;;;3.67;3.00;;;;;19.68;45.28;100937.47;4927578;28;45481;-72
2023/12/10 10:12:47;;;;;;;;;2.33;1.00;;;;;19.75;45.37;100948.19;4926699;28;45319;-72
2023/12/10 10:15:13;;;;;;;;;5.00;1.67;;;;;19.79;45.64;100949.53;4926869;28;45462;-73
2023/12/10 10:17:38;;;;;;;;;0.67;0.67;;;;;19.75;46.14;100931.56;4931132;28;45852;-72
2023/12/10 10:20:04;;;;;;;;;10.00;2.67;;;;;19.85;46.07;100926.94;4928069;28;45362;-71
2023/12/10 10:22:31;;;;;;;;;4.00;2.33;;;;;19.87;45.99;100932.06;4927166;28;45375;-73
2023/12/10 10:24:57;;;;;;;;;4.33;3.00;;;;;19.90;46.12;100927.28;4925962;28;45338;-72
2023/12/10 10:27:23;;;;;;;;;4.00;1.33;;;;;19.92;46.17;100922.66;4925485;28;46150;-72
2023/12/10 10:29:53;;;;;;;;;3.33;2.33;;;;;19.88;46.40;100907.31;4926562;28;45473;-72
2023/12/10 10:32:19;;;;;;;;;6.33;5.00;;;;;19.96;46.77;100913.41;4928493;28;45480;-71
2023/12/10 10:34:49;;;;;;;;;3.00;0.67;;;;;19.90;46.49;100894.75;4926101;28;45389;-72
2023/12/10 10:37:15;;;;;;;;;3.00;1.67;;;;;20.00;46.77;100898.06;4926292;28;47109;-72
2023/12/10 10:39:42;;;;;;;;;2.00;1.00;;;;;20.01;46.96;100890.97;4927735;28;45377;-72
2023/12/10 10:42:08;;;;;;;;;2.00;1.00;;;;;20.03;46.81;100881.06;4925767;28;45316;-71
2023/12/10 10:44:41;;;;;;;;;2.67;1.67;;;;;20.03;47.21;100876.63;4928474;28;45428;-72
2023/12/10 10:47:08;;;;;;;;;1.67;0.67;;;;;20.05;46.90;100869.34;4925957;28;46652;-71
2023/12/10 10:49:35;;;;;;;;;3.00;2.33;;;;;20.05;47.17;100858.78;4925895;28;45540;-78
2023/12/10 10:52:04;;;;;;;;;2.33;1.33;;;;;20.06;47.64;100854.34;4925277;28;45327;-77
2023/12/10 10:54:31;;;;;;;;;2.00;1.50;;;;;20.04;47.10;100840.44;4941651;28;45356;-77
2023/12/10 10:56:56;;;;;;;;;1.67;1.00;;;;;20.08;47.47;100852.34;4926729;28;47772;-78
2023/12/10 10:59:33;;;;;;;;;2.67;1.33;;;;;20.02;47.41;100826.59;4922393;28;45485;-74
2023/12/10 11:02:00;;;;;;;;;3.67;1.00;;;;;20.12;47.08;100824.63;4920393;28;45445;-70
2023/12/10 11:04:39;;;;;;;;;8.00;1.67;;;;;20.13;47.33;100810.44;4916827;28;45620;-70
2023/12/10 11:07:05;;;;;;;;;1.67;0.67;;;;;20.05;47.79;100794.56;4927767;28;45487;-69
2023/12/10 11:09:31;;;;;;;;;0.33;0.33;;;;;20.10;47.57;100786.13;4922671;28;45399;-70
2023/12/10 11:12:00;;;;;;;;;3.00;2.00;;;;;20.15;47.94;100789.13;4930520;28;45331;-70
2023/12/10 11:14:28;;;;;;;;;5.00;1.00;;;;;20.15;47.99;100774.09;4917650;28;45343;-70
2023/12/10 11:17:02;;;;;;;;;5.00;2.00;;;;;20.17;47.80;100773.91;4923934;28;46384;-70
2023/12/10 11:19:32;;;;;;;;;1.00;0.67;;;;;20.18;48.11;100755.28;4955539;28;45310;-69
2023/12/10 11:22:01;;;;;;;;;0.67;0.67;;;;;20.19;48.22;100745.53;4957372;28;45392;-69
2023/12/10 11:24:27;;;;;;;;;3.67;0.67;;;;;20.22;48.31;100739.09;4956957;28;45367;-70
2023/12/10 11:26:52;;;;;;;;;3.00;1.00;;;;;20.23;48.10;100732.78;4941305;28;45280;-70
2023/12/10 11:29:17;;;;;;;;;0.33;0.33;;;;;20.19;48.48;100729.69;4930035;28;45445;-70
2023/12/10 11:31:46;;;;;;;;;2.67;0.33;;;;;20.26;48.69;100738.56;4929911;28;45797;-69
2023/12/10 11:34:12;;;;;;;;;3.00;0.67;;;;;20.26;48.17;100730.66;4923182;28;45487;-68
2023/12/10 11:36:37;;;;;;;;;2.33;2.00;;;;;20.22;48.30;100717.97;4920329;28;47211;-70
2023/12/10 11:39:03;;;;;;;;;4.00;0.00;;;;;20.27;48.63;100716.44;4920025;28;45481;-69
2023/12/10 11:41:29;;;;;;;;;4.00;1.00;;;;;20.24;48.37;100718.59;4920415;28;45665;-70
2023/12/10 11:43:54;;;;;;;;;2.67;1.67;;;;;20.24;48.54;100708.88;4936479;28;45509;-69
2023/12/10 11:46:21;;;;;;;;;1.67;0.00;;;;;20.30;48.42;100709.97;4948596;28;46110;-69
2023/12/10 11:48:46;;;;;;;;;3.67;1.00;;;;;20.31;48.98;100693.13;4947118;28;45282;-69
2023/12/10 11:51:12;;;;;;;;;6.00;1.67;;;;;20.31;48.86;100687.84;4949421;28;45288;-69
2023/12/10 11:53:37;;;;;;;;;0.00;0.00;;;;;20.26;48.70;100669.06;4948172;28;45413;-69
2023/12/10 11:56:03;;;;;;;;;2.67;0.67;;;;;20.31;48.71;100664.06;4947814;28;46122;-69
2023/12/10 11:58:29;;;;;;;;;2.33;1.33;;;;;20.32;48.73;100678.94;4949464;28;45315;-69
2023/12/10 12:01:01;;;;;;;;;4.67;1.00;;;;;20.33;48.70;100648.03;4948102;28;45379;-69
2023/12/10 12:03:30;;;;;;;;;3.00;1.67;;;;;20.25;48.71;100633.06;4947045;28;45468;-69
2023/12/10 12:05:55;;;;;;;;;3.00;2.00;;;;;20.27;48.97;100631.09;4926854;28;45641;-69
2023/12/10 12:08:27;;;;;;;;;3.33;0.33;;;;;20.33;48.80;100648.03;4945000;28;45401;-69
2023/12/10 12:10:54;;;;;;;;;2.67;1.00;;;;;20.27;49.17;100647.72;4947771;28;45502;-68
2023/12/10 12:13:20;;;;;;;;;2.33;1.67;;;;;20.32;49.01;100636.66;4944991;28;45362;-69
2023/12/10 12:15:50;;;;;;;;;1.33;0.67;;;;;20.26;48.97;100630.25;4928965;28;46961;-69
2023/12/10 12:18:16;;;;;;;;;0.00;0.00;;;;;20.33;49.36;100616.34;4927676;28;45450;-69
2023/12/10 12:20:42;;;;;;;;;2.33;0.00;;;;;20.32;48.98;100620.81;4929297;28;45446;-68
2023/12/10 12:23:08;;;;;;;;;1.33;1.33;;;;;20.34;49.16;100591.56;4928986;28;45514;-69
2023/12/10 12:25:38;;;;;;;;;4.33;0.00;;;;;20.33;49.41;100593.38;4927654;28;47151;-69
2023/12/10 12:28:07;;;;;;;;;5.00;0.67;;;;;20.34;49.12;100581.00;4929016;28;45563;-69
2023/12/10 12:30:34;;;;;;;;;2.33;0.67;;;;;20.35;49.52;100585.31;4929676;28;45320;-68
2023/12/10 12:33:00;;;;;;;;;3.00;1.00;;;;;20.34;49.29;100576.53;4937315;28;45414;-69
2023/12/10 12:35:26;;;;;;;;;4.00;0.67;;;;;20.26;49.01;100561.56;4946886;28;47087;-71
2023/12/10 12:37:51;;;;;;;;;3.00;0.67;;;;;20.34;49.29;100550.13;4948543;28;45385;-70
2023/12/10 12:40:17;;;;;;;;;2.00;1.67;;;;;20.35;49.35;100556.22;4947316;28;45357;-69
2023/12/10 12:42:43;;;;;;;;;1.67;0.33;;;;;20.33;49.16;100537.06;4945009;28;45519;-70
2023/12/10 12:45:09;;;;;;;;;2.00;0.67;;;;;20.33;49.44;100516.75;4945663;28;46400;-69
2023/12/10 12:47:34;;;;;;;;;1.67;1.67;;;;;20.35;49.31;100500.75;4947180;28;45428;-70
2023/12/10 12:50:00;;;;;;;;;1.33;0.00;;;;;20.35;49.10;100496.25;4947541;28;45394;-70
2023/12/10 12:52:25;;;;;;;;;1.67;0.00;;;;;20.23;49.44;100477.38;4947982;28;45751;-72
2023/12/10 12:54:51;;;;;;;;;1.00;0.67;;;;;20.33;49.48;100485.06;4933469;28;46856;-74
2023/12/10 12:57:16;;;;;;;;;2.67;1.00;;;;;20.35;49.74;100490.97;4936820;28;45374;-75
2023/12/10 12:59:42;;;;;;;;;1.00;0.67;;;;;20.36;49.64;100484.69;4925189;28;45435;-74
2023/12/10 13:02:07;;;;;;;;;0.00;0.00;;;;;20.31;49.32;100468.56;4937459;28;45603;-74
2023/12/10 13:04:33;;;;;;;;;0.67;0.00;;;;;20.35;49.33;100471.69;4925653;28;46273;-75
2023/12/10 13:06:58;;;;;;;;;0.67;0.67;;;;;20.36;49.40;100482.06;4937298;28;45451;-74
2023/12/10 13:09:24;;;;;;;;;1.33;0.00;;;;;20.36;49.55;100468.03;4937965;28;45727;-77
2023/12/10 13:11:49;;;;;;;;;1.67;0.00;;;;;20.33;49.88;100457.81;4927549;28;46088;-77
2023/12/10 13:14:15;;;;;;;;;1.00;0.00;;;;;20.35;49.76;100453.97;4931950;28;46445;-75
2023/12/10 13:16:42;;;;;;;;;2.67;0.00;;;;;20.34;49.75;100440.97;4938042;28;45361;-76
2023/12/10 13:19:08;;;;;;;;;5.33;0.67;;;;;20.34;49.82;100430.41;4937722;28;45349;-75
2023/12/10 13:21:33;;;;;;;;;2.67;0.67;;;;;20.35;49.76;100427.56;4937760;28;45417;-75
2023/12/10 13:23:58;;;;;;;;;1.00;1.00;;;;;20.43;49.70;100428.50;4937280;28;46253;-76
2023/12/10 13:26:24;;;;;;;;;3.00;0.67;;;;;20.34;49.82;100420.66;4937647;28;45437;-75
2023/12/10 13:28:49;;;;;;;;;2.33;1.33;;;;;20.44;50.28;100424.84;4930067;28;45364;-76
2023/12/10 13:31:15;;;;;;;;;3.00;2.33;;;;;20.35;49.84;100382.66;4937741;28;45339;-75
2023/12/10 13:33:40;;;;;;;;;3.33;2.67;;;;;20.46;50.42;100399.06;4937530;28;46174;-75
2023/12/10 13:36:05;;;;;;;;;9.67;6.33;;;;;20.45;50.44;100389.50;4937038;28;45353;-75
2023/12/10 13:38:31;;;;;;;;;25.25;25.25;;;;;20.32;50.62;100353.97;4937797;28;45427;-75
2023/12/10 13:40:56;;;;;;;;;37.25;34.50;;;;;20.45;50.69;100347.22;4937175;28;45537;-75
2023/12/10 13:43:22;;;;;;;;;46.75;40.25;;;;;20.40;50.54;100364.44;4937091;28;46967;-75
2023/12/10 13:45:47;;;;;;;;;51.00;43.25;;;;;20.50;50.83;100363.38;4936188;28;45363;-75
2023/12/10 13:48:13;;;;;;;;;53.75;43.75;;;;;20.40;50.67;100339.84;4937220;28;45323;-75
2023/12/10 13:50:38;;;;;;;;;63.00;51.50;;;;;20.50;50.54;100347.50;4936581;28;45450;-76
2023/12/10 13:53:04;;;;;;;;;56.00;46.00;;;;;20.28;50.81;100303.31;4937437;28;45419;-75
2023/12/10 13:55:30;;;;;;;;;59.25;47.50;;;;;20.45;50.43;100321.63;4937225;28;45437;-76
2023/12/10 13:57:55;;;;;;;;;57.00;47.50;;;;;20.51;50.72;100327.97;4943248;28;45408;-76
2023/12/10 14:00:21;;;;;;;;;57.50;47.50;;;;;20.55;50.83;100336.38;4939695;28;45367;-77
2023/12/10 14:02:47;;;;;;;;;57.25;47.00;;;;;20.50;50.96;100303.41;4929001;28;45450;-76
2023/12/10 14:05:13;;;;;;;;;55.75;46.50;;;;;20.51;50.86;100307.66;4931592;28;45429;-75
2023/12/10 14:07:40;;;;;;;;;54.50;45.25;;;;;20.43;50.86;100276.03;4940399;28;45309;-79
2023/12/10 14:10:06;;;;;;;;;53.00;44.75;;;;;20.53;50.97;100299.56;4936886;28;45449;-77
2023/12/10 14:12:32;;;;;;;;;53.50;44.00;;;;;20.42;50.93;100292.91;4935425;28;47448;-77
2023/12/10 14:14:57;;;;;;;;;55.50;46.00;;;;;20.37;51.13;100298.75;4927920;28;45438;-79
2023/12/10 14:17:23;;;;;;;;;53.00;44.00;;;;;20.54;50.60;100301.19;4934460;28;45336;-74
2023/12/10 14:19:48;;;;;;;;;51.50;43.50;;;;;20.54;51.28;100301.19;4942271;28;45436;-71
2023/12/10 14:22:14;;;;;;;;;46.00;39.75;;;;;20.54;51.04;100287.16;4940567;28;47247;-73
2023/12/10 14:24:39;;;;;;;;;56.00;44.50;;;;;20.53;51.03;100286.34;4935112;28;46009;-71
2023/12/10 14:27:05;;;;;;;;;53.50;44.25;;;;;20.55;51.12;100272.94;4936808;28;45498;-71
2023/12/10 14:29:30;;;;;;;;;53.25;44.00;;;;;20.56;51.35;100277.22;4934875;28;45366;-71
2023/12/10 14:31:55;;;;;;;;;50.00;42.75;;;;;20.55;51.33;100270.31;4931834;28;46095;-70
2023/12/10 14:34:22;;;;;;;;;51.25;44.25;;;;;20.54;51.08;100264.19;4943285;28;45287;-70
2023/12/10 14:36:47;;;;;;;;;51.25;43.50;;;;;20.48;51.04;100241.16;4929456;28;45852;-70
2023/12/10 14:39:13;;;;;;;;;53.50;44.50;;;;;20.57;51.15;100247.97;4930071;28;45450;-71
2023/12/10 14:41:38;;;;;;;;;52.75;43.25;;;;;20.58;51.32;100243.50;4931273;28;45440;-71
2023/12/10 14:44:04;;;;;;;;;51.25;42.75;;;;;20.60;50.76;100244.16;4939952;28;45481;-71
2023/12/10 14:46:30;;;;;;;;;49.50;41.50;;;;;20.60;51.22;100241.50;4935943;28;45436;-71
2023/12/10 14:48:56;;;;;;;;;49.00;42.25;;;;;20.56;51.22;100230.47;4924377;28;45496;-70
2023/12/10 14:51:22;;;;;;;;;47.00;40.25;;;;;20.56;50.86;100240.22;4947440;28;45582;-70
2023/12/10 14:53:47;;;;;;;;;50.00;42.00;;;;;20.62;51.13;100253.53;4934762;28;45951;-69
2023/12/10 14:56:13;;;;;;;;;48.75;42.00;;;;;20.54;51.16;100224.56;4929386;28;45526;-73
2023/12/10 14:58:38;;;;;;;;;45.75;39.00;;;;;20.59;50.85;100239.84;4933116;28;45429;-72
2023/12/10 15:01:04;;;;;;;;;46.50;40.00;;;;;20.62;51.18;100247.41;4939317;28;46222;-71
2023/12/10 15:03:29;;;;;;;;;40.00;34.50;;;;;20.63;50.82;100251.72;4936618;28;45474;-75
2023/12/10 15:05:55;;;;;;;;;35.75;32.25;;;;;20.63;50.84;100255.16;4939290;28;45430;-75
2023/12/10 15:08:20;;;;;;;;;33.75;31.25;;;;;20.64;50.47;100250.69;4943022;28;45240;-73
2023/12/10 15:10:46;;;;;;;;;37.50;33.75;;;;;20.63;50.62;100257.78;4939526;28;45254;-77
2023/12/10 15:13:12;;;;;;;;;35.25;32.75;;;;;20.65;50.62;100264.72;4939288;28;45339;-76
2023/12/10 15:15:37;;;;;;;;;34.75;32.25;;;;;20.59;50.88;100251.25;4939504;28;45245;-78
2023/12/10 15:18:03;;;;;;;;;40.00;34.50;;;;;20.63;50.49;100260.44;4938129;28;45407;-76
2023/12/10 15:20:29;;;;;;;;;35.75;33.25;;;;;20.53;50.78;100257.28;4932618;28;47017;-77
2023/12/10 15:22:54;;;;;;;;;34.75;32.75;;;;;20.49;50.72;100248.91;4938507;28;45867;-76
2023/12/10 15:25:19;;;;;;;;;35.00;33.00;;;;;20.59;50.49;100264.47;4939586;28;45350;-72
2023/12/10 15:27:45;;;;;;;;;31.50;31.00;;;;;20.60;50.88;100281.16;4939522;28;45347;-72
2023/12/10 15:30:10;;;;;;;;;37.50;33.00;;;;;20.53;50.38;100261.75;4939068;28;45475;-72
2023/12/10 15:32:36;;;;;;;;;33.75;30.50;;;;;20.58;50.42;100265.47;4939286;28;45327;-74
2023/12/10 15:35:03;;;;;;;;;33.50;30.25;;;;;20.59;50.81;100261.00;4939612;28;45397;-74
2023/12/10 15:37:28;;;;;;;;;32.00;30.25;;;;;20.58;50.81;100267.31;4939349;28;45423;-71
2023/12/10 15:39:55;;;;;;;;;30.50;30.00;;;;;20.58;51.09;100270.75;4938743;28;46109;-72
2023/12/10 15:42:21;;;;;;;;;32.50;31.00;;;;;20.59;50.72;100268.94;4938896;28;45513;-71
2023/12/10 15:44:46;;;;;;;;;34.25;31.50;;;;;20.57;50.85;100266.47;4940043;28;45596;-74
2023/12/10 15:47:14;;;;;;;;;30.75;29.75;;;;;20.57;50.88;100274.41;4939077;28;45408;-72
2023/12/10 15:49:39;;;;;;;;;34.75;31.00;;;;;20.54;51.34;100245.69;4938863;28;47528;-72
2023/12/10 15:52:05;;;;;;;;;27.00;26.25;;;;;20.55;51.43;100260.56;4938627;28;45459;-74
2023/12/10 15:54:31;;;;;;;;;31.50;30.50;;;;;20.56;50.91;100258.72;4939583;28;45577;-76
2023/12/10 15:57:02;;;;;;;;;14.00;13.25;;;;;20.56;51.24;100264.00;4939361;28;46147;-74
2023/12/10 15:59:28;;;;;;;;;35.00;30.00;;;;;20.57;51.17;100263.84;4938272;28;45406;-73
2023/12/10 16:01:53;;;;;;;;;29.00;28.50;;;;;20.57;51.39;100260.38;4930938;28;45336;-73
2023/12/10 16:04:19;;;;;;;;;34.50;30.75;;;;;20.58;51.46;100254.88;4937736;28;45429;-71
2023/12/10 16:06:44;;;;;;;;;28.75;28.75;;;;;20.56;51.40;100261.34;4940332;28;45291;-71
2023/12/10 16:09:10;;;;;;;;;32.00;31.00;;;;;20.55;51.43;100257.09;4942771;28;46304;-73
2023/12/10 16:11:35;;;;;;;;;31.25;26.75;;;;;20.61;51.84;100261.63;4938584;28;45426;-71
2023/12/10 16:14:03;;;;;;;;;29.75;29.25;;;;;20.55;51.59;100250.00;4938285;28;45574;-71
2023/12/10 16:16:28;;;;;;;;;27.50;26.75;;;;;20.62;51.34;100274.66;4938574;28;45502;-72
2023/12/10 16:18:54;;;;;;;;;29.50;29.25;;;;;20.62;51.75;100273.84;4938278;28;45330;-72
2023/12/10 16:21:19;;;;;;;;;26.00;26.00;;;;;20.62;51.68;100272.03;4932332;28;45379;-72
2023/12/10 16:23:44;;;;;;;;;27.25;26.75;;;;;20.63;51.89;100275.50;4935564;28;45431;-72
2023/12/10 16:26:10;;;;;;;;;30.00;30.00;;;;;20.65;51.85;100283.22;4938207;28;45446;-75
2023/12/10 16:28:35;;;;;;;;;28.75;28.75;;;;;20.65;52.05;100268.19;4932883;28;46353;-75
2023/12/10 16:31:00;;;;;;;;;25.75;23.50;;;;;20.60;51.69;100260.00;4929375;28;45358;-75
2023/12/10 16:33:26;;;;;;;;;26.25;24.75;;;;;20.64;51.81;100261.25;4946668;28;45466;-77
2023/12/10 16:35:51;;;;;;;;;23.75;23.00;;;;;20.74;52.50;100277.66;4939324;28;45537;-75
2023/12/10 16:38:17;;;;;;;;;24.25;24.25;;;;;20.69;52.52;100258.88;4938293;28;45511;-77
2023/12/10 16:40:42;;;;;;;;;25.25;22.50;;;;;20.76;52.31;100271.38;4933100;28;45421;-78
2023/12/10 16:43:08;;;;;;;;;25.50;23.75;;;;;20.81;52.39;100279.56;4936919;28;45453;-74
2023/12/10 16:45:33;;;;;;;;;25.25;22.00;;;;;20.76;52.77;100274.84;4945636;28;45440;-75
2023/12/10 16:47:59;;;;;;;;;22.00;21.50;;;;;20.86;52.23;100295.69;4944517;28;45510;-73
2023/12/10 16:50:25;;;;;;;;;24.50;21.75;;;;;20.87;52.12;100302.59;4934538;28;45620;-76
2023/12/10 16:52:50;;;;;;;;;19.00;19.00;;;;;20.82;52.56;100291.75;4934230;28;45482;-72
2023/12/10 16:55:15;;;;;;;;;23.00;21.75;;;;;20.84;52.60;100303.00;4948605;28;45510;-73
2023/12/10 16:57:41;;;;;;;;;17.50;17.50;;;;;20.83;51.82;100296.06;4937203;28;45378;-71
2023/12/10 17:00:09;;;;;;;;;17.50;17.50;;;;;20.81;51.71;100293.59;4939570;28;45490;-69
2023/12/10 17:02:35;;;;;;;;;18.25;18.25;;;;;20.82;51.93;100300.53;4949011;28;45478;-70
2023/12/10 17:05:01;;;;;;;;;21.25;20.75;;;;;20.81;52.16;100301.53;4937830;28;45463;-70
2023/12/10 17:07:26;;;;;;;;;18.00;17.00;;;;;20.82;51.81;100294.41;4936790;28;46812;-70
2023/12/10 17:09:51;;;;;;;;;19.25;17.75;;;;;20.82;51.98;100300.53;4937580;28;45449;-71
2023/12/10 17:12:17;;;;;;;;;17.00;17.00;;;;;20.80;52.27;100296.41;4937135;28;45465;-71
2023/12/10 17:14:42;;;;;;;;;16.50;16.00;;;;;20.82;52.29;100308.44;4937889;28;45357;-70
2023/12/10 17:17:09;;;;;;;;;18.50;17.25;;;;;20.83;52.07;100309.28;4937175;28;46155;-70
2023/12/10 17:19:34;;;;;;;;;16.25;16.25;;;;;20.82;52.63;100303.16;4936274;28;45371;-70
2023/12/10 17:22:00;;;;;;;;;19.25;16.75;;;;;20.81;52.50;100304.19;4926221;28;45431;-70
2023/12/10 17:24:25;;;;;;;;;15.00;15.00;;;;;20.80;52.35;100297.25;4935702;28;45458;-69
2023/12/10 17:26:50;;;;;;;;;15.00;14.75;;;;;20.81;52.42;100314.75;4937038;28;45980;-70
2023/12/10 17:29:16;;;;;;;;;18.50;16.50;;;;;20.82;52.46;100315.56;4936838;28;45345;-71
2023/12/10 17:31:41;;;;;;;;;16.75;15.25;;;;;20.79;52.03;100316.75;4937634;28;45487;-70
2023/12/10 17:34:06;;;;;;;;;14.75;14.75;;;;;20.81;52.27;100327.97;4937305;28;45330;-70
2023/12/10 17:36:32;;;;;;;;;16.75;13.75;;;;;20.77;52.69;100321.41;4936949;28;45421;-71
2023/12/10 17:38:58;;;;;;;;;16.50;16.50;;;;;20.81;52.32;100330.63;4939584;28;45489;-71
2023/12/10 17:41:23;;;;;;;;;17.50;17.00;;;;;20.81;52.67;100325.34;4933408;28;45469;-70
2023/12/10 17:43:49;;;;;;;;;14.75;14.75;;;;;20.81;52.71;100343.84;4933966;28;45430;-70
2023/12/10 17:46:14;;;;;;;;;15.25;15.25;;;;;20.80;52.42;100336.09;4936377;28;46143;-71
2023/12/10 17:48:40;;;;;;;;;14.25;13.25;;;;;20.80;52.28;100347.47;4936347;28;45438;-71
2023/12/10 17:51:05;;;;;;;;;15.75;13.75;;;;;20.80;52.46;100344.00;4937201;28;45362;-71
2023/12/10 17:53:30;;;;;;;;;13.75;12.50;;;;;20.80;52.49;100344.84;4938166;28;45414;-71
2023/12/10 17:55:56;;;;;;;;;14.00;14.00;;;;;20.57;52.45;100302.66;4929369;28;47177;-70
2023/12/10 17:58:21;;;;;;;;;15.00;14.00;;;;;20.80;52.94;100349.31;4928854;28;45623;-71
2023/12/10 18:00:51;;;;;;;;;14.50;14.50;;;;;20.76;52.43;100334.81;4936890;28;45283;-74
2023/12/10 18:03:17;;;;;;;;;15.00;15.00;;;;;20.76;52.39;100337.47;4936547;28;45312;-71
2023/12/10 18:05:42;;;;;;;;;13.50;13.50;;;;;20.79;52.77;100343.19;4936617;28;45498;-70
2023/12/10 18:08:07;;;;;;;;;12.50;12.50;;;;;20.79;52.57;100343.19;4937037;28;45320;-70
2023/12/10 18:10:33;;;;;;;;;17.00;16.25;;;;;20.78;52.84;100327.53;4938657;28;45473;-72
2023/12/10 18:12:58;;;;;;;;;13.75;13.75;;;;;20.73;52.85;100328.06;4936528;28;45383;-71
2023/12/10 18:15:23;;;;;;;;;12.00;12.00;;;;;20.80;52.58;100330.78;4936667;28;46031;-71
2023/12/10 18:17:49;;;;;;;;;13.00;13.00;;;;;20.80;52.88;100344.84;4936501;28;45271;-71
2023/12/10 18:20:14;;;;;;;;;16.25;14.50;;;;;20.79;52.52;100337.91;4936599;28;45524;-71
2023/12/10 18:22:39;;;;;;;;;15.25;13.75;;;;;20.77;53.15;100339.91;4926506;28;45590;-71
2023/12/10 18:25:05;;;;;;;;;14.50;12.75;;;;;20.71;52.73;100330.09;4950109;28;46406;-71
2023/12/10 18:27:31;;;;;;;;;15.25;11.75;;;;;20.74;52.71;100327.06;4936979;28;45454;-71
2023/12/10 18:29:56;;;;;;;;;14.25;14.00;;;;;20.80;52.97;100333.44;4936766;28;45359;-71
2023/12/10 18:32:21;;;;;;;;;16.00;14.50;;;;;20.79;52.82;100347.69;4939494;28;45343;-71
2023/12/10 18:34:47;;;;;;;;;14.50;14.00;;;;;20.78;52.65;100343.38;4939612;28;45371;-71
2023/12/10 18:37:12;;;;;;;;;9.75;9.75;;;;;20.73;52.58;100341.28;4938954;28;45525;-71
2023/12/10 18:39:37;;;;;;;;;12.50;12.50;;;;;20.76;53.29;100337.47;4939960;28;45430;-71
2023/12/10 18:42:03;;;;;;;;;14.00;13.50;;;;;20.78;53.00;100346.03;4939114;28;46667;-71
2023/12/10 18:44:28;;;;;;;;;19.00;15.25;;;;;20.79;52.57;100352.97;4940296;28;46288;-72
2023/12/10 18:46:53;;;;;;;;;12.25;12.25;;;;;20.78;52.88;100351.31;4951300;28;45362;-73
2023/12/10 18:49:19;;;;;;;;;13.25;13.25;;;;;20.79;53.21;100355.59;4931110;28;45336;-71
2023/12/10 18:51:44;;;;;;;;;13.00;13.00;;;;;20.79;53.01;100352.97;4938467;28;45355;-71
2023/12/10 18:54:09;;;;;;;;;14.00;13.25;;;;;20.71;52.76;100344.09;4939538;28;46980;-71
2023/12/10 18:56:35;;;;;;;;;11.00;11.00;;;;;20.79;52.94;100351.13;4939767;28;45327;-71
2023/12/10 18:59:01;;;;;;;;;11.00;11.00;;;;;20.65;52.77;100330.81;4930643;28;45385;-71
2023/12/10 19:01:26;;;;;;;;;12.25;11.50;;;;;20.78;53.22;100356.59;4939385;28;45495;-70
2023/12/10 19:03:51;;;;;;;;;11.00;11.00;;;;;20.77;53.01;100355.78;4939430;28;46320;-70
2023/12/10 19:06:17;;;;;;;;;11.00;11.00;;;;;20.71;52.93;100356.53;4939197;28;45354;-72
2023/12/10 19:08:42;;;;;;;;;11.25;10.00;;;;;20.71;52.89;100346.75;4938629;28;45331;-72
2023/12/10 19:11:08;;;;;;;;;13.00;13.00;;;;;20.77;52.95;100355.78;4939118;28;45612;-70
2023/12/10 19:13:33;;;;;;;;;12.00;11.50;;;;;20.65;52.73;100346.66;4938377;28;45384;-72
2023/12/10 19:15:59;;;;;;;;;13.25;12.00;;;;;20.77;53.21;100366.34;4939268;28;45444;-72
2023/12/10 19:18:27;;;;;;;;;11.00;11.00;;;;;20.70;52.90;100362.81;4937952;28;45386;-70
2023/12/10 19:20:52;;;;;;;;;12.25;12.00;;;;;20.77;52.94;100369.00;4935931;28;45511;-69
2023/12/10 19:23:17;;;;;;;;;9.33;9.33;;;;;20.77;53.40;100384.84;4928555;28;46063;-71
2023/12/10 19:25:43;;;;;;;;;12.75;11.50;;;;;20.77;52.91;100369.00;4946214;28;45501;-69
2023/12/10 19:28:09;;;;;;;;;12.00;11.00;;;;;20.77;53.41;100365.53;4958740;28;45395;-70
2023/12/10 19:30:34;;;;;;;;;14.50;12.00;;;;;20.77;52.86;100382.22;4942881;28;45424;-70
2023/12/10 19:33:01;;;;;;;;;9.50;9.50;;;;;20.72;53.28;100374.00;4939044;28;46066;-71
2023/12/10 19:35:29;;;;;;;;;12.25;12.00;;;;;20.76;53.12;100385.88;4934360;28;45313;-71
2023/12/10 19:37:56;;;;;;;;;11.25;11.25;;;;;20.70;53.21;100376.84;4936674;28;45346;-72
2023/12/10 19:40:22;;;;;;;;;10.25;10.25;;;;;20.71;53.36;100385.59;4946574;28;45326;-70
2023/12/10 19:42:47;;;;;;;;;10.25;10.00;;;;;20.78;53.35;100390.97;4938059;28;46296;-71
2023/12/10 19:45:12;;;;;;;;;9.25;9.25;;;;;20.75;52.98;100400.09;4936313;28;45468;-70
2023/12/10 19:47:38;;;;;;;;;9.33;9.33;;;;;20.76;53.32;100396.44;4939201;28;45340;-72
2023/12/10 19:50:03;;;;;;;;;7.00;5.00;;;;;20.76;53.24;100396.44;4937288;28;45513;-72
2023/12/10 19:52:29;;;;;;;;;11.00;10.00;;;;;20.76;53.16;100385.06;4937396;28;45350;-71
2023/12/10 19:54:54;;;;;;;;;11.25;10.75;;;;;20.70;53.08;100368.91;4938074;28;45299;-69
2023/12/10 19:57:19;;;;;;;;;12.50;11.00;;;;;20.63;53.18;100363.53;4938767;28;45410;-70
2023/12/10 19:59:45;;;;;;;;;9.50;9.50;;;;;20.73;53.38;100378.31;4938398;28;45511;-71
2023/12/10 20:02:11;;;;;;;;;10.00;10.00;;;;;20.69;53.17;100372.56;4938272;28;46140;-71
2023/12/10 20:04:36;;;;;;;;;9.50;9.50;;;;;20.73;53.61;100373.03;4938384;28;45401;-72
2023/12/10 20:07:01;;;;;;;;;12.50;9.50;;;;;20.70;52.97;100376.84;4938094;28;45328;-70
2023/12/10 20:09:27;;;;;;;;;10.67;9.67;;;;;20.73;53.15;100375.66;4937528;28;45392;-71
2023/12/10 20:11:52;;;;;;;;;10.00;9.00;;;;;20.69;53.10;100366.44;4938304;28;46184;-71
2023/12/10 20:14:18;;;;;;;;;9.67;9.67;;;;;20.69;53.55;100369.09;4938135;28;45560;-76
2023/12/10 20:16:43;;;;;;;;;11.75;9.75;;;;;20.78;53.07;100401.53;4938409;28;45512;-75
2023/12/10 20:19:08;;;;;;;;;10.00;10.00;;;;;20.79;51.97;100401.34;4938279;28;45252;-74
2023/12/10 20:21:37;;;;;;;;;7.75;7.00;;;;;20.71;51.65;100386.41;4930232;28;45969;-77
2023/12/10 20:24:03;;;;;;;;;10.25;10.25;;;;;20.72;52.13;100385.41;4933853;28;45387;-73
2023/12/10 20:26:28;;;;;;;;;10.50;10.50;;;;;20.65;52.44;100376.56;4939114;28;45463;-75
2023/12/10 20:28:54;;;;;;;;;10.75;9.00;;;;;20.76;52.33;100390.34;4938783;28;45448;-75
2023/12/10 20:31:19;;;;;;;;;9.25;8.50;;;;;20.75;52.65;100392.16;4938930;28;46264;-76
2023/12/10 20:33:44;;;;;;;;;9.25;8.50;;;;;20.70;52.76;100386.59;4937211;28;45483;-73
2023/12/10 20:36:10;;;;;;;;;14.00;9.33;;;;;20.69;52.64;100375.19;4938228;28;45382;-76
2023/12/10 20:38:35;;;;;;;;;11.75;9.75;;;;;20.69;52.49;100377.00;4938339;28;45441;-76
2023/12/10 20:41:01;;;;;;;;;11.00;8.00;;;;;20.69;52.75;100385.78;4937430;28;45529;-75
2023/12/10 20:43:26;;;;;;;;;9.67;9.00;;;;;20.68;52.95;100383.31;4938194;28;45369;-73
2023/12/10 20:45:52;;;;;;;;;9.33;9.33;;;;;20.57;53.60;100361.63;4939256;28;45370;-72
2023/12/10 20:48:17;;;;;;;;;9.67;9.67;;;;;20.61;53.40;100367.34;4938590;28;45444;-76
2023/12/10 20:50:42;;;;;;;;;10.75;10.75;;;;;20.70;54.59;100391.88;4937986;28;46115;-76